createdAt,value
2019-01-11T00:00:37.924Z,17.46
2019-01-11T00:01:38.182Z,17.44
2019-01-11T00:02:39.750Z,17.45
2019-01-11T00:03:37.682Z,17.45
2019-01-11T00:04:37.783Z,17.43
2019-01-11T00:05:37.938Z,17.42
2019-01-11T00:06:37.774Z,17.42
2019-01-11T00:07:37.989Z,17.42
2019-01-11T00:08:37.631Z,17.42
2019-01-11T00:09:37.976Z,17.42
2019-01-11T00:10:37.741Z,17.42
2019-01-11T00:11:37.833Z,17.4
2019-01-11T00:12:38.008Z,17.41
2019-01-11T00:13:38.172Z,17.42
2019-01-11T00:14:38.015Z,17.4
2019-01-11T00:15:38.017Z,17.39
2019-01-11T00:16:37.497Z,17.39
2019-01-11T00:17:37.932Z,17.39
2019-01-11T00:18:38.027Z,17.39
2019-01-11T00:19:37.692Z,17.37
2019-01-11T00:20:37.671Z,17.36
2019-01-11T00:21:37.512Z,17.35
2019-01-11T00:22:37.553Z,17.36
2019-01-11T00:23:37.646Z,17.35
2019-01-11T00:24:37.690Z,17.35
2019-01-11T00:25:37.549Z,17.34
2019-01-11T00:26:39.922Z,17.35
2019-01-11T00:27:37.844Z,17.34
2019-01-11T00:28:37.939Z,17.33
2019-01-11T00:29:37.671Z,17.34
2019-01-11T00:30:37.456Z,17.35
2019-01-11T00:31:37.748Z,17.32
2019-01-11T00:32:37.929Z,17.32
2019-01-11T00:33:37.629Z,17.31
2019-01-11T00:34:37.970Z,17.3
2019-01-11T00:35:37.781Z,17.3
2019-01-11T00:36:38.029Z,17.3
2019-01-11T00:37:37.566Z,17.29
2019-01-11T00:38:38.100Z,17.29
2019-01-11T00:39:37.658Z,17.29
2019-01-11T00:40:38.199Z,17.28
2019-01-11T00:41:38.195Z,17.3
2019-01-11T00:42:37.821Z,17.29
2019-01-11T00:43:37.638Z,17.28
2019-01-11T00:44:37.969Z,17.28
2019-01-11T00:45:37.955Z,17.27
2019-01-11T00:46:37.878Z,17.25
2019-01-11T00:47:37.648Z,17.26
2019-01-11T00:48:38.121Z,17.26
2019-01-11T00:49:37.709Z,17.24
2019-01-11T00:50:37.571Z,17.26
2019-01-11T00:51:37.675Z,17.24
2019-01-11T00:52:37.798Z,17.24
2019-01-11T00:53:38.174Z,17.24
2019-01-11T00:54:38.357Z,17.24
2019-01-11T00:55:37.892Z,17.23
2019-01-11T00:56:37.709Z,17.23
2019-01-11T00:57:37.793Z,17.23
2019-01-11T00:58:37.860Z,17.23
2019-01-11T00:59:38.156Z,17.22
2019-01-11T01:00:37.682Z,17.23
2019-01-11T01:01:37.751Z,17.23
2019-01-11T01:02:37.703Z,17.22
2019-01-11T01:03:37.797Z,17.22
2019-01-11T01:04:37.758Z,17.21
2019-01-11T01:05:37.810Z,17.2
2019-01-11T01:06:37.748Z,17.2
2019-01-11T01:07:37.749Z,17.19
2019-01-11T01:08:38.081Z,17.18
2019-01-11T01:09:37.552Z,17.18
2019-01-11T01:10:37.661Z,17.17
2019-01-11T01:11:37.652Z,17.18
2019-01-11T01:12:37.656Z,17.17
2019-01-11T01:13:37.884Z,17.18
2019-01-11T01:14:38.037Z,17.18
2019-01-11T01:15:37.680Z,17.17
2019-01-11T01:16:37.657Z,17.17
2019-01-11T01:17:37.797Z,17.17
2019-01-11T01:18:38.367Z,17.17
2019-01-11T01:19:37.789Z,17.16
2019-01-11T01:20:38.099Z,17.17
2019-01-11T01:21:38.049Z,17.17
2019-01-11T01:22:38.154Z,17.14
2019-01-11T01:23:38.400Z,17.14
2019-01-11T01:24:37.570Z,17.13
2019-01-11T01:25:38.776Z,17.14
2019-01-11T01:26:37.704Z,17.13
2019-01-11T01:27:37.910Z,17.13
2019-01-11T01:28:38.031Z,17.14
2019-01-11T01:29:38.049Z,17.13
2019-01-11T01:30:38.091Z,17.12
2019-01-11T01:31:37.790Z,17.12
2019-01-11T01:32:38.106Z,17.12
2019-01-11T01:33:37.778Z,17.1
2019-01-11T01:34:37.932Z,17.11
2019-01-11T01:35:38.005Z,17.1
2019-01-11T01:36:37.746Z,17.1
2019-01-11T01:37:38.447Z,17.1
2019-01-11T01:38:37.759Z,17.1
2019-01-11T01:39:38.009Z,17.1
2019-01-11T01:40:37.942Z,17.1
2019-01-11T01:41:37.596Z,17.09
2019-01-11T01:42:37.476Z,17.09
2019-01-11T01:43:37.554Z,17.09
2019-01-11T01:44:37.681Z,17.09
2019-01-11T01:45:38.035Z,17.08
2019-01-11T01:46:38.050Z,17.07
2019-01-11T01:47:37.932Z,17.08
2019-01-11T01:48:37.669Z,17.07
2019-01-11T01:49:38.075Z,17.07
2019-01-11T01:50:37.621Z,17.08
2019-01-11T01:51:39.518Z,17.06
2019-01-11T01:52:37.713Z,17.06
2019-01-11T01:53:37.813Z,17.06
2019-01-11T01:54:37.899Z,17.05
2019-01-11T01:55:38.025Z,17.05
2019-01-11T01:56:37.717Z,17.06
2019-01-11T01:57:38.133Z,17.04
2019-01-11T01:58:37.667Z,17.04
2019-01-11T01:59:37.656Z,17.04
2019-01-11T02:00:37.610Z,17.05
2019-01-11T02:01:37.802Z,17.04
2019-01-11T02:02:37.625Z,17.04
2019-01-11T02:03:38.475Z,17.04
2019-01-11T02:04:37.854Z,17.04
2019-01-11T02:05:37.834Z,17.03
2019-01-11T02:06:37.691Z,17.02
2019-01-11T02:07:38.128Z,17.03
2019-01-11T02:08:38.238Z,17.04
2019-01-11T02:09:37.858Z,17.02
2019-01-11T02:10:37.826Z,17.03
2019-01-11T02:11:37.934Z,17.01
2019-01-11T02:12:38.067Z,17
2019-01-11T02:13:37.736Z,16.98
2019-01-11T02:14:37.771Z,16.98
2019-01-11T02:15:37.700Z,16.98
2019-01-11T02:16:37.894Z,16.98
2019-01-11T02:17:37.710Z,16.98
2019-01-11T02:18:37.446Z,16.98
2019-01-11T02:19:38.613Z,16.98
2019-01-11T02:20:37.748Z,16.98
2019-01-11T02:21:37.486Z,16.98
2019-01-11T02:22:37.648Z,16.98
2019-01-11T02:23:38.010Z,16.98
2019-01-11T02:24:37.899Z,16.97
2019-01-11T02:25:37.827Z,16.98
2019-01-11T02:26:38.019Z,16.96
2019-01-11T02:27:37.854Z,16.97
2019-01-11T02:28:37.957Z,16.95
2019-01-11T02:29:37.906Z,16.95
2019-01-11T02:30:37.889Z,16.94
2019-01-11T02:31:37.600Z,16.94
2019-01-11T02:32:37.835Z,16.95
2019-01-11T02:33:37.962Z,16.94
2019-01-11T02:34:37.865Z,16.93
2019-01-11T02:35:39.435Z,16.95
2019-01-11T02:36:37.542Z,16.93
2019-01-11T02:37:37.766Z,16.93
2019-01-11T02:38:37.840Z,16.92
2019-01-11T02:39:37.715Z,16.92
2019-01-11T02:40:37.911Z,16.92
2019-01-11T02:41:38.064Z,16.92
2019-01-11T02:42:37.670Z,16.92
2019-01-11T02:43:37.667Z,16.92
2019-01-11T02:44:37.744Z,16.92
2019-01-11T02:45:37.737Z,16.91
2019-01-11T02:46:37.669Z,16.91
2019-01-11T02:47:38.260Z,16.9
2019-01-11T02:48:37.884Z,16.89
2019-01-11T02:49:40.663Z,16.89
2019-01-11T02:50:37.885Z,16.89
2019-01-11T02:51:37.703Z,16.88
2019-01-11T02:52:37.760Z,16.88
2019-01-11T02:53:37.631Z,16.89
2019-01-11T02:54:37.871Z,16.89
2019-01-11T02:55:38.022Z,16.89
2019-01-11T02:56:38.425Z,16.88
2019-01-11T02:57:37.993Z,16.87
2019-01-11T02:58:37.685Z,16.86
2019-01-11T02:59:38.069Z,16.86
2019-01-11T03:00:37.892Z,16.86
2019-01-11T03:01:37.758Z,16.86
2019-01-11T03:02:37.699Z,16.85
2019-01-11T03:03:37.766Z,16.86
2019-01-11T03:04:37.545Z,16.85
2019-01-11T03:05:37.557Z,16.85
2019-01-11T03:06:37.915Z,16.85
2019-01-11T03:07:37.955Z,16.85
2019-01-11T03:08:38.030Z,16.83
2019-01-11T03:09:37.914Z,16.82
2019-01-11T03:10:37.799Z,16.83
2019-01-11T03:11:37.786Z,16.84
2019-01-11T03:12:38.017Z,16.83
2019-01-11T03:13:37.928Z,16.82
2019-01-11T03:14:37.766Z,16.83
2019-01-11T03:15:37.890Z,16.83
2019-01-11T03:16:37.689Z,16.83
2019-01-11T03:17:37.579Z,16.82
2019-01-11T03:18:37.879Z,16.82
2019-01-11T03:19:38.488Z,16.8
2019-01-11T03:20:38.224Z,16.81
2019-01-11T03:21:37.588Z,16.81
2019-01-11T03:22:38.219Z,16.8
2019-01-11T03:23:37.831Z,16.8
2019-01-11T03:24:37.681Z,16.79
2019-01-11T03:25:37.451Z,16.79
2019-01-11T03:26:37.649Z,16.79
2019-01-11T03:27:37.667Z,16.79
2019-01-11T03:28:37.499Z,16.79
2019-01-11T03:29:37.711Z,16.8
2019-01-11T03:30:38.176Z,16.8
2019-01-11T03:31:37.687Z,16.79
2019-01-11T03:32:37.786Z,16.78
2019-01-11T03:33:37.966Z,16.78
2019-01-11T03:34:37.992Z,16.78
2019-01-11T03:35:37.912Z,16.77
2019-01-11T03:36:37.447Z,16.77
2019-01-11T03:37:37.796Z,16.77
2019-01-11T03:38:37.734Z,16.77
2019-01-11T03:39:37.638Z,16.78
2019-01-11T03:40:37.631Z,16.77
2019-01-11T03:41:37.592Z,16.78
2019-01-11T03:42:37.744Z,16.77
2019-01-11T03:43:37.914Z,16.76
2019-01-11T03:44:37.841Z,16.76
2019-01-11T03:45:37.992Z,16.75
2019-01-11T03:46:37.805Z,16.76
2019-01-11T03:47:38.288Z,16.75
2019-01-11T03:48:37.623Z,16.74
2019-01-11T03:49:37.996Z,16.75
2019-01-11T03:50:37.699Z,16.74
2019-01-11T03:51:37.562Z,16.73
2019-01-11T03:52:38.289Z,16.73
2019-01-11T03:53:37.556Z,16.73
2019-01-11T03:54:38.050Z,16.73
2019-01-11T03:55:38.065Z,16.73
2019-01-11T03:56:38.169Z,16.73
2019-01-11T03:57:37.605Z,16.73
2019-01-11T03:58:37.774Z,16.73
2019-01-11T03:59:37.957Z,16.73
2019-01-11T04:00:38.879Z,16.73
2019-01-11T04:01:37.768Z,16.71
2019-01-11T04:02:38.116Z,16.71
2019-01-11T04:03:37.647Z,16.72
2019-01-11T04:04:37.674Z,16.72
2019-01-11T04:05:38.126Z,16.71
2019-01-11T04:06:37.944Z,16.7
2019-01-11T04:07:37.780Z,16.7
2019-01-11T04:08:37.653Z,16.7
2019-01-11T04:09:37.840Z,16.7
2019-01-11T04:10:37.507Z,16.69
2019-01-11T04:11:38.283Z,16.7
2019-01-11T04:12:38.231Z,16.69
2019-01-11T04:13:39.455Z,16.69
2019-01-11T04:14:37.689Z,16.68
2019-01-11T04:15:37.868Z,16.68
2019-01-11T04:16:38.904Z,16.69
2019-01-11T04:17:37.878Z,16.67
2019-01-11T04:18:38.024Z,16.67
2019-01-11T04:19:38.117Z,16.67
2019-01-11T04:20:37.610Z,16.68
2019-01-11T04:21:37.847Z,16.67
2019-01-11T04:22:37.985Z,16.67
2019-01-11T04:23:37.849Z,16.67
2019-01-11T04:24:37.632Z,16.67
2019-01-11T04:25:37.599Z,16.66
2019-01-11T04:26:37.765Z,16.66
2019-01-11T04:27:37.709Z,16.66
2019-01-11T04:28:37.420Z,16.66
2019-01-11T04:29:37.778Z,16.66
2019-01-11T04:30:37.960Z,16.66
2019-01-11T04:31:37.878Z,16.66
2019-01-11T04:32:37.661Z,16.66
2019-01-11T04:33:37.663Z,16.66
2019-01-11T04:34:37.940Z,16.66
2019-01-11T04:35:38.036Z,16.66
2019-01-11T04:36:37.726Z,16.64
2019-01-11T04:37:37.711Z,16.64
2019-01-11T04:38:37.758Z,16.64
2019-01-11T04:39:37.716Z,16.64
2019-01-11T04:40:38.071Z,16.64
2019-01-11T04:41:38.173Z,16.64
2019-01-11T04:42:37.720Z,16.65
2019-01-11T04:43:37.971Z,16.64
2019-01-11T04:44:38.606Z,16.65
2019-01-11T04:45:38.212Z,16.66
2019-01-11T04:46:38.107Z,16.67
2019-01-11T04:47:37.947Z,16.67
2019-01-11T04:48:37.564Z,16.69
2019-01-11T04:49:37.695Z,16.68
2019-01-11T04:50:38.255Z,16.69
2019-01-11T04:51:38.038Z,16.7
2019-01-11T04:52:37.667Z,16.72
2019-01-11T04:53:37.852Z,16.73
2019-01-11T04:54:37.482Z,16.74
2019-01-11T04:55:37.737Z,16.74
2019-01-11T04:56:37.858Z,16.76
2019-01-11T04:57:38.302Z,16.78
2019-01-11T04:58:37.656Z,16.79
2019-01-11T04:59:38.357Z,16.81
2019-01-11T05:00:37.957Z,16.82
2019-01-11T05:01:37.688Z,16.83
2019-01-11T05:02:37.624Z,16.85
2019-01-11T05:03:37.779Z,16.85
2019-01-11T05:04:37.893Z,16.87
2019-01-11T05:05:37.642Z,16.89
2019-01-11T05:06:37.994Z,16.91
2019-01-11T05:07:37.997Z,16.92
2019-01-11T05:08:37.850Z,16.95
2019-01-11T05:09:37.777Z,16.96
2019-01-11T05:10:37.618Z,16.98
2019-01-11T05:11:37.694Z,17
2019-01-11T05:12:37.593Z,17
2019-01-11T05:13:37.510Z,17.02
2019-01-11T05:14:38.240Z,17.05
2019-01-11T05:15:37.715Z,17.07
2019-01-11T05:16:40.081Z,17.1
2019-01-11T05:17:38.455Z,17.12
2019-01-11T05:18:37.472Z,17.14
2019-01-11T05:19:37.914Z,17.15
2019-01-11T05:20:37.422Z,17.17
2019-01-11T05:21:37.437Z,17.19
2019-01-11T05:22:37.878Z,17.23
2019-01-11T05:23:37.720Z,17.24
2019-01-11T05:24:37.617Z,17.27
2019-01-11T05:25:37.658Z,17.29
2019-01-11T05:26:37.570Z,17.3
2019-01-11T05:27:37.751Z,17.33
2019-01-11T05:28:37.677Z,17.35
2019-01-11T05:29:37.819Z,17.36
2019-01-11T05:30:37.748Z,17.38
2019-01-11T05:31:39.517Z,17.41
2019-01-11T05:32:37.399Z,17.42
2019-01-11T05:33:37.919Z,17.44
2019-01-11T05:34:37.876Z,17.45
2019-01-11T05:35:37.586Z,17.48
2019-01-11T05:36:38.005Z,17.49
2019-01-11T05:37:38.000Z,17.52
2019-01-11T05:38:37.437Z,17.52
2019-01-11T05:39:37.805Z,17.54
2019-01-11T05:40:37.660Z,17.56
2019-01-11T05:41:37.719Z,17.58
2019-01-11T05:42:38.019Z,17.59
2019-01-11T05:43:37.835Z,17.6
2019-01-11T05:44:37.946Z,17.61
2019-01-11T05:45:37.745Z,17.63
2019-01-11T05:46:37.611Z,17.64
2019-01-11T05:47:38.389Z,17.66
2019-01-11T05:48:37.927Z,17.67
2019-01-11T05:49:37.723Z,17.68
2019-01-11T05:50:38.242Z,17.69
2019-01-11T05:51:38.422Z,17.71
2019-01-11T05:52:37.879Z,17.72
2019-01-11T05:53:37.876Z,17.73
2019-01-11T05:54:37.882Z,17.74
2019-01-11T05:55:37.833Z,17.76
2019-01-11T05:56:37.936Z,17.77
2019-01-11T05:57:38.147Z,17.79
2019-01-11T05:58:37.574Z,17.8
2019-01-11T05:59:37.833Z,17.82
2019-01-11T06:00:37.498Z,17.83
2019-01-11T06:01:38.325Z,17.85
2019-01-11T06:02:39.441Z,17.86
2019-01-11T06:03:38.196Z,17.86
2019-01-11T06:04:39.091Z,17.88
2019-01-11T06:05:38.021Z,17.89
2019-01-11T06:06:37.711Z,17.92
2019-01-11T06:07:37.383Z,17.92
2019-01-11T06:08:37.923Z,17.95
2019-01-11T06:09:38.090Z,17.95
2019-01-11T06:10:37.644Z,17.96
2019-01-11T06:11:37.673Z,17.97
2019-01-11T06:12:37.500Z,17.97
2019-01-11T06:13:37.807Z,17.98
2019-01-11T06:14:37.692Z,17.99
2019-01-11T06:15:38.400Z,18
2019-01-11T06:16:37.726Z,18.02
2019-01-11T06:17:37.727Z,18.03
2019-01-11T06:18:37.766Z,18.03
2019-01-11T06:19:37.684Z,18.04
2019-01-11T06:20:37.672Z,18.05
2019-01-11T06:21:37.717Z,18.08
2019-01-11T06:22:37.698Z,18.08
2019-01-11T06:23:37.723Z,18.1
2019-01-11T06:24:37.720Z,18.1
2019-01-11T06:25:37.734Z,18.1
2019-01-11T06:26:37.526Z,18.12
2019-01-11T06:27:38.324Z,18.12
2019-01-11T06:28:37.728Z,18.12
2019-01-11T06:29:37.499Z,18.16
2019-01-11T06:30:37.896Z,18.19
2019-01-11T06:31:37.976Z,18.19
2019-01-11T06:32:38.076Z,18.19
2019-01-11T06:33:39.108Z,18.22
2019-01-11T06:34:37.334Z,18.22
2019-01-11T06:35:38.002Z,18.23
2019-01-11T06:36:37.686Z,18.25
2019-01-11T06:37:37.795Z,18.27
2019-01-11T06:38:37.634Z,18.28
2019-01-11T06:39:37.339Z,18.29
2019-01-11T06:40:37.919Z,18.31
2019-01-11T06:41:37.535Z,18.32
2019-01-11T06:42:37.754Z,18.33
2019-01-11T06:43:37.705Z,18.33
2019-01-11T06:44:39.315Z,18.35
2019-01-11T06:45:37.869Z,18.38
2019-01-11T06:46:38.268Z,18.38
2019-01-11T06:47:39.491Z,18.38
2019-01-11T06:48:37.443Z,18.41
2019-01-11T06:49:37.582Z,18.41
2019-01-11T06:50:37.832Z,18.41
2019-01-11T06:51:38.052Z,18.43
2019-01-11T06:52:37.638Z,18.44
2019-01-11T06:53:37.902Z,18.46
2019-01-11T06:54:38.117Z,18.48
2019-01-11T06:55:38.027Z,18.48
2019-01-11T06:56:39.329Z,18.49
2019-01-11T06:57:37.702Z,18.5
2019-01-11T06:58:37.760Z,18.51
2019-01-11T06:59:37.564Z,18.51
2019-01-11T07:00:37.456Z,18.52
2019-01-11T07:01:37.673Z,18.54
2019-01-11T07:02:37.840Z,18.54
2019-01-11T07:03:37.979Z,18.56
2019-01-11T07:04:37.563Z,18.55
2019-01-11T07:05:37.842Z,18.56
2019-01-11T07:06:37.960Z,18.57
2019-01-11T07:07:37.407Z,18.6
2019-01-11T07:08:37.899Z,18.6
2019-01-11T07:09:38.042Z,18.6
2019-01-11T07:10:37.556Z,18.6
2019-01-11T07:11:37.899Z,18.6
2019-01-11T07:12:37.383Z,18.6
2019-01-11T07:13:37.617Z,18.6
2019-01-11T07:14:38.462Z,18.63
2019-01-11T07:15:37.778Z,18.62
2019-01-11T07:16:37.438Z,18.63
2019-01-11T07:17:37.856Z,18.61
2019-01-11T07:18:37.695Z,18.63
2019-01-11T07:19:37.739Z,18.65
2019-01-11T07:20:44.727Z,18.65
2019-01-11T07:21:37.824Z,18.66
2019-01-11T07:22:38.143Z,18.66
2019-01-11T07:23:37.651Z,18.66
2019-01-11T07:24:37.832Z,18.66
2019-01-11T07:25:37.915Z,18.67
2019-01-11T07:26:37.387Z,18.67
2019-01-11T07:27:37.690Z,18.67
2019-01-11T07:28:37.863Z,18.67
2019-01-11T07:29:38.028Z,18.67
2019-01-11T07:30:37.890Z,18.69
2019-01-11T07:31:37.979Z,18.68
2019-01-11T07:32:37.728Z,18.68
2019-01-11T07:33:37.450Z,18.7
2019-01-11T07:34:38.273Z,18.7
2019-01-11T07:35:37.692Z,18.69
2019-01-11T07:36:38.010Z,18.7
2019-01-11T07:37:39.341Z,18.7
2019-01-11T07:38:37.434Z,18.72
2019-01-11T07:39:39.534Z,18.72
2019-01-11T07:40:37.532Z,18.71
2019-01-11T07:41:38.492Z,18.72
2019-01-11T07:42:37.837Z,18.72
2019-01-11T07:43:37.881Z,18.7
2019-01-11T07:44:37.681Z,18.7
2019-01-11T07:45:37.314Z,18.71
2019-01-11T07:46:37.897Z,18.71
2019-01-11T07:47:37.994Z,18.71
2019-01-11T07:48:37.335Z,18.71
2019-01-11T07:49:37.891Z,18.72
2019-01-11T07:50:38.025Z,18.72
2019-01-11T07:51:37.828Z,18.72
2019-01-11T07:52:40.475Z,18.72
2019-01-11T07:53:37.721Z,18.72
2019-01-11T07:54:37.724Z,18.72
2019-01-11T07:55:37.849Z,18.71
2019-01-11T07:56:37.691Z,18.71
2019-01-11T07:57:37.410Z,18.74
2019-01-11T07:58:37.847Z,18.75
2019-01-11T07:59:37.765Z,18.74
2019-01-11T08:00:37.660Z,18.77
2019-01-11T08:01:37.765Z,18.77
2019-01-11T08:02:37.481Z,18.75
2019-01-11T08:03:37.453Z,18.74
2019-01-11T08:04:37.909Z,18.74
2019-01-11T08:05:37.778Z,18.74
2019-01-11T08:06:37.985Z,18.73
2019-01-11T08:07:37.759Z,18.72
2019-01-11T08:08:37.454Z,18.73
2019-01-11T08:09:37.657Z,18.74
2019-01-11T08:10:37.316Z,18.73
2019-01-11T08:11:37.984Z,18.75
2019-01-11T08:12:37.780Z,18.73
2019-01-11T08:13:37.902Z,18.74
2019-01-11T08:14:37.517Z,18.73
2019-01-11T08:15:37.670Z,18.74
2019-01-11T08:16:37.866Z,18.74
2019-01-11T08:17:37.570Z,18.74
2019-01-11T08:18:38.645Z,18.77
2019-01-11T08:19:37.478Z,18.8
2019-01-11T08:20:37.463Z,18.79
2019-01-11T08:21:37.923Z,18.82
2019-01-11T08:22:37.384Z,18.8
2019-01-11T08:23:37.900Z,18.79
2019-01-11T08:24:37.735Z,18.8
2019-01-11T08:25:37.747Z,18.84
2019-01-11T08:26:37.973Z,18.84
2019-01-11T08:27:37.456Z,18.85
2019-01-11T08:28:37.405Z,18.9
2019-01-11T08:29:38.081Z,18.88
2019-01-11T08:30:38.005Z,18.89
2019-01-11T08:31:37.810Z,18.9
2019-01-11T08:32:37.689Z,18.9
2019-01-11T08:33:37.819Z,18.89
2019-01-11T08:34:37.838Z,18.9
2019-01-11T08:35:38.012Z,18.9
2019-01-11T08:36:37.552Z,18.9
2019-01-11T08:37:38.489Z,18.9
2019-01-11T08:38:37.876Z,18.91
2019-01-11T08:39:38.518Z,18.9
2019-01-11T08:40:38.302Z,18.9
2019-01-11T08:41:37.508Z,18.92
2019-01-11T08:42:37.994Z,18.91
2019-01-11T08:43:37.398Z,18.92
2019-01-11T08:44:37.536Z,18.93
2019-01-11T08:45:38.450Z,18.94
2019-01-11T08:46:37.690Z,18.96
2019-01-11T08:47:38.037Z,18.95
2019-01-11T08:48:38.054Z,18.96
2019-01-11T08:49:39.360Z,18.95
2019-01-11T08:50:37.835Z,18.95
2019-01-11T08:51:37.819Z,18.97
2019-01-11T08:52:38.155Z,18.94
2019-01-11T08:53:38.164Z,18.92
2019-01-11T08:54:37.491Z,18.91
2019-01-11T08:55:37.865Z,18.9
2019-01-11T08:56:38.005Z,18.9
2019-01-11T08:57:37.346Z,18.9
2019-01-11T08:58:37.930Z,18.88
2019-01-11T08:59:37.363Z,18.88
2019-01-11T09:00:37.544Z,18.88
2019-01-11T09:01:37.816Z,18.88
2019-01-11T09:02:37.796Z,18.86
2019-01-11T09:03:37.721Z,18.86
2019-01-11T09:04:37.892Z,18.86
2019-01-11T09:05:37.445Z,18.84
2019-01-11T09:06:37.947Z,18.84
2019-01-11T09:07:37.470Z,18.84
2019-01-11T09:08:37.759Z,18.83
2019-01-11T09:09:37.925Z,18.83
2019-01-11T09:10:37.377Z,18.83
2019-01-11T09:11:37.774Z,18.82
2019-01-11T09:12:37.406Z,18.82
2019-01-11T09:13:37.527Z,18.81
2019-01-11T09:14:37.577Z,18.81
2019-01-11T09:15:37.783Z,18.81
2019-01-11T09:16:37.804Z,18.8
2019-01-11T09:17:38.312Z,18.8
2019-01-11T09:18:37.598Z,18.8
2019-01-11T09:19:37.922Z,18.78
2019-01-11T09:20:37.708Z,18.78
2019-01-11T09:21:42.148Z,18.77
2019-01-11T09:22:37.726Z,18.75
2019-01-11T09:23:39.504Z,18.75
2019-01-11T09:24:37.383Z,18.73
2019-01-11T09:25:37.887Z,18.72
2019-01-11T09:26:37.675Z,18.72
2019-01-11T09:27:37.750Z,18.72
2019-01-11T09:28:37.517Z,18.71
2019-01-11T09:29:37.427Z,18.7
2019-01-11T09:30:37.438Z,18.69
2019-01-11T09:31:39.459Z,18.68
2019-01-11T09:32:38.232Z,18.69
2019-01-11T09:33:38.182Z,18.66
2019-01-11T09:34:37.424Z,18.67
2019-01-11T09:35:37.946Z,18.66
2019-01-11T09:36:37.543Z,18.66
2019-01-11T09:37:37.743Z,18.66
2019-01-11T09:38:37.785Z,18.65
2019-01-11T09:39:37.626Z,18.64
2019-01-11T09:40:37.385Z,18.64
2019-01-11T09:41:37.879Z,18.63
2019-01-11T09:42:37.420Z,18.64
2019-01-11T09:43:37.877Z,18.63
2019-01-11T09:44:37.805Z,18.62
2019-01-11T09:45:37.455Z,18.63
2019-01-11T09:46:37.810Z,18.62
2019-01-11T09:47:37.836Z,18.62
2019-01-11T09:48:37.742Z,18.62
2019-01-11T09:49:37.736Z,18.61
2019-01-11T09:50:37.845Z,18.61
2019-01-11T09:51:37.561Z,18.61
2019-01-11T09:52:37.851Z,18.6
2019-01-11T09:53:37.389Z,18.63
2019-01-11T09:54:37.973Z,18.63
2019-01-11T09:55:37.902Z,18.65
2019-01-11T09:56:37.433Z,18.66
2019-01-11T09:57:38.054Z,18.66
2019-01-11T09:58:37.447Z,18.67
2019-01-11T09:59:37.821Z,18.69
2019-01-11T10:00:37.846Z,18.7
2019-01-11T10:01:38.253Z,18.7
2019-01-11T10:02:38.636Z,18.72
2019-01-11T10:03:37.849Z,18.72
2019-01-11T10:04:37.643Z,18.72
2019-01-11T10:05:37.865Z,18.74
2019-01-11T10:06:37.345Z,18.75
2019-01-11T10:07:37.890Z,18.75
2019-01-11T10:08:37.982Z,18.77
2019-01-11T10:09:37.598Z,18.77
2019-01-11T10:10:37.817Z,18.76
2019-01-11T10:11:37.208Z,18.78
2019-01-11T10:12:37.688Z,18.78
2019-01-11T10:13:37.914Z,18.78
2019-01-11T10:14:37.733Z,18.8
2019-01-11T10:15:37.596Z,18.8
2019-01-11T10:16:37.378Z,18.81
2019-01-11T10:17:37.806Z,18.8
2019-01-11T10:18:37.764Z,18.81
2019-01-11T10:19:37.717Z,18.84
2019-01-11T10:20:37.783Z,18.85
2019-01-11T10:21:37.835Z,18.86
2019-01-11T10:22:37.512Z,18.89
2019-01-11T10:23:37.862Z,18.9
2019-01-11T10:24:37.449Z,18.9
2019-01-11T10:25:37.438Z,18.91
2019-01-11T10:26:37.614Z,18.92
2019-01-11T10:27:37.433Z,18.95
2019-01-11T10:28:38.333Z,18.96
2019-01-11T10:29:37.944Z,18.95
2019-01-11T10:30:39.301Z,18.95
2019-01-11T10:31:37.515Z,18.95
2019-01-11T10:32:37.382Z,18.96
2019-01-11T10:33:37.734Z,18.97
2019-01-11T10:34:37.954Z,18.97
2019-01-11T10:35:37.863Z,18.97
2019-01-11T10:36:37.553Z,18.99
2019-01-11T10:37:37.776Z,18.99
2019-01-11T10:38:37.587Z,18.99
2019-01-11T10:39:37.773Z,18.99
2019-01-11T10:40:37.784Z,19.01
2019-01-11T10:41:37.859Z,19.03
2019-01-11T10:42:39.881Z,19.01
2019-01-11T10:43:39.326Z,19.02
2019-01-11T10:44:37.710Z,19.03
2019-01-11T10:45:37.470Z,19.03
2019-01-11T10:46:37.428Z,19.03
2019-01-11T10:47:37.851Z,19.03
2019-01-11T10:48:37.767Z,19.04
2019-01-11T10:49:37.733Z,19.04
2019-01-11T10:50:38.028Z,19.05
2019-01-11T10:51:38.213Z,19.05
2019-01-11T10:52:37.432Z,19.06
2019-01-11T10:53:37.223Z,19.06
2019-01-11T10:54:37.897Z,19.06
2019-01-11T10:55:37.719Z,19.06
2019-01-11T10:56:37.525Z,19.06
2019-01-11T10:57:37.491Z,19.06
2019-01-11T10:58:37.473Z,19.06
2019-01-11T10:59:37.569Z,19.06
2019-01-11T11:00:37.540Z,19.08
2019-01-11T11:01:37.380Z,19.08
2019-01-11T11:02:37.503Z,19.07
2019-01-11T11:03:39.465Z,19.07
2019-01-11T11:04:37.353Z,19.07
2019-01-11T11:05:37.344Z,19.07
2019-01-11T11:06:37.514Z,19.08
2019-01-11T11:07:37.793Z,19.08
2019-01-11T11:08:37.701Z,19.08
2019-01-11T11:09:37.610Z,19.08
2019-01-11T11:10:37.423Z,19.08
2019-01-11T11:11:37.759Z,19.08
2019-01-11T11:12:37.237Z,19.08
2019-01-11T11:13:37.891Z,19.09
2019-01-11T11:14:37.835Z,19.09
2019-01-11T11:15:37.741Z,19.09
2019-01-11T11:16:37.756Z,19.09
2019-01-11T11:17:38.180Z,19.1
2019-01-11T11:18:37.493Z,19.1
2019-01-11T11:19:37.504Z,19.1
2019-01-11T11:20:38.324Z,19.1
2019-01-11T11:21:37.683Z,19.11
2019-01-11T11:22:37.933Z,19.11
2019-01-11T11:23:37.427Z,19.1
2019-01-11T11:24:37.813Z,19.11
2019-01-11T11:25:37.759Z,19.12
2019-01-11T11:26:37.616Z,19.11
2019-01-11T11:27:37.465Z,19.11
2019-01-11T11:28:37.855Z,19.1
2019-01-11T11:29:37.649Z,19.1
2019-01-11T11:30:37.894Z,19.11
2019-01-11T11:31:37.231Z,19.1
2019-01-11T11:32:37.757Z,19.1
2019-01-11T11:33:37.779Z,19.1
2019-01-11T11:34:37.230Z,19.1
2019-01-11T11:35:37.459Z,19.1
2019-01-11T11:36:37.825Z,19.1
2019-01-11T11:37:37.421Z,19.09
2019-01-11T11:38:37.812Z,19.11
2019-01-11T11:39:37.404Z,19.11
2019-01-11T11:40:37.490Z,19.12
2019-01-11T11:41:37.950Z,19.11
2019-01-11T11:42:37.415Z,19.11
2019-01-11T11:43:37.518Z,19.11
2019-01-11T11:44:37.231Z,19.11
2019-01-11T11:45:37.738Z,19.11
2019-01-11T11:46:37.661Z,19.12
2019-01-11T11:47:37.768Z,19.1
2019-01-11T11:48:38.175Z,19.09
2019-01-11T11:49:37.412Z,19.07
2019-01-11T11:50:37.473Z,19.07
2019-01-11T11:51:41.801Z,19.05
2019-01-11T11:52:38.102Z,19.04
2019-01-11T11:53:38.297Z,19.04
2019-01-11T11:54:37.553Z,19.03
2019-01-11T11:55:37.470Z,19.03
2019-01-11T11:56:37.734Z,19.02
2019-01-11T11:57:37.657Z,19.01
2019-01-11T11:58:37.794Z,19.01
2019-01-11T11:59:37.813Z,19.01
2019-01-11T12:00:37.941Z,19
2019-01-11T12:01:38.415Z,18.99
2019-01-11T12:02:38.390Z,18.99
2019-01-11T12:03:38.045Z,18.99
2019-01-11T12:04:37.685Z,18.98
2019-01-11T12:05:37.549Z,18.98
2019-01-11T12:06:37.529Z,18.97
2019-01-11T12:07:37.918Z,18.97
2019-01-11T12:08:37.960Z,18.97
2019-01-11T12:09:37.880Z,18.97
2019-01-11T12:10:37.723Z,18.96
2019-01-11T12:11:37.468Z,18.96
2019-01-11T12:12:38.086Z,18.95
2019-01-11T12:13:37.765Z,18.95
2019-01-11T12:14:37.411Z,18.94
2019-01-11T12:15:37.903Z,18.93
2019-01-11T12:16:37.455Z,18.92
2019-01-11T12:17:37.855Z,18.9
2019-01-11T12:18:37.774Z,18.9
2019-01-11T12:19:37.552Z,18.9
2019-01-11T12:20:37.398Z,18.9
2019-01-11T12:21:37.363Z,18.89
2019-01-11T12:22:37.508Z,18.88
2019-01-11T12:23:37.354Z,18.87
2019-01-11T12:24:37.510Z,18.85
2019-01-11T12:25:37.495Z,18.85
2019-01-11T12:26:37.421Z,18.84
2019-01-11T12:27:37.529Z,18.84
2019-01-11T12:28:37.638Z,18.84
2019-01-11T12:29:37.455Z,18.83
2019-01-11T12:30:37.804Z,18.82
2019-01-11T12:31:37.227Z,18.81
2019-01-11T12:32:38.115Z,18.81
2019-01-11T12:33:37.437Z,18.81
2019-01-11T12:34:37.372Z,18.81
2019-01-11T12:35:37.802Z,18.81
2019-01-11T12:36:37.554Z,18.79
2019-01-11T12:37:37.452Z,18.81
2019-01-11T12:38:38.561Z,18.79
2019-01-11T12:39:37.395Z,18.79
2019-01-11T12:40:37.830Z,18.79
2019-01-11T12:41:38.200Z,18.79
2019-01-11T12:42:37.337Z,18.78
2019-01-11T12:43:37.783Z,18.79
2019-01-11T12:44:37.617Z,18.78
2019-01-11T12:45:37.808Z,18.78
2019-01-11T12:46:37.763Z,18.78
2019-01-11T12:47:37.288Z,18.78
2019-01-11T12:48:37.444Z,18.78
2019-01-11T12:49:37.584Z,18.77
2019-01-11T12:50:38.180Z,18.77
2019-01-11T12:51:37.950Z,18.78
2019-01-11T12:52:37.918Z,18.81
2019-01-11T12:53:37.500Z,18.82
2019-01-11T12:54:38.027Z,18.84
2019-01-11T12:55:38.178Z,18.84
2019-01-11T12:56:37.859Z,18.84